Time;durP1;ratioP1;P1;durP2;ratioP2;P2;SDS_P1;SDS_P2;PMS_P1;PMS_P2;Temp;Humidity;BMP_temperature;BMP_pressure;BME280_temperature;BME280_humidity;BME280_pressure;Samples;Min_cycle;Max_cycle;Signal;HPM_P1;HPM_P2
2022/02/18 00:00:24;;;;;;;2.40;1.60;;;8.60;82.20;;;;;;5068060;28;20214;-77
2022/02/18 00:02:50;;;;;;;2.93;1.73;;;;;;;;;;5069183;28;20262;-77
2022/02/18 00:05:15;;;;;;;1.83;1.50;;;8.60;81.90;;;;;;5075425;28;20186;-76
2022/02/18 00:07:44;;;;;;;1.53;1.53;;;8.60;81.70;;;;;;5067724;28;20210;-76
2022/02/18 00:10:10;;;;;;;2.07;1.87;;;;;;;;;;5073676;28;20578;-76
2022/02/18 00:12:36;;;;;;;2.10;1.87;;;8.70;81.60;;;;;;5069407;28;20186;-76
2022/02/18 00:15:03;;;;;;;2.00;1.67;;;8.80;81.20;;;;;;5068154;28;20191;-75
2022/02/18 00:17:29;;;;;;;1.60;1.60;;;8.80;81.10;;;;;;5075429;28;20187;-75
2022/02/18 00:19:56;;;;;;;1.50;1.50;;;8.80;81.10;;;;;;5063957;28;20179;-75
2022/02/18 00:22:27;;;;;;;1.93;1.80;;;8.90;81.00;;;;;;5069088;28;20186;-76
2022/02/18 00:24:56;;;;;;;3.67;1.67;;;8.90;80.80;;;;;;5067346;28;20178;-75
2022/02/18 00:27:21;;;;;;;1.67;1.57;;;8.90;80.60;;;;;;5069052;28;20226;-75
2022/02/18 00:29:47;;;;;;;2.00;1.43;;;9.00;80.10;;;;;;5064897;28;20183;-75
2022/02/18 00:32:13;;;;;;;1.73;1.13;;;9.00;80.20;;;;;;5067444;28;20256;-75
2022/02/18 00:34:39;;;;;;;2.00;1.33;;;9.10;79.80;;;;;;5070197;28;20178;-76
2022/02/18 00:37:05;;;;;;;1.57;1.47;;;9.30;79.00;;;;;;5071255;28;20983;-76
2022/02/18 00:39:31;;;;;;;1.37;1.37;;;9.30;79.00;;;;;;5070077;28;21016;-76
2022/02/18 00:41:58;;;;;;;1.33;1.30;;;9.40;78.40;;;;;;5069267;28;20179;-76
2022/02/18 00:44:24;;;;;;;4.47;1.93;;;9.40;78.40;;;;;;5068554;28;20183;-77
2022/02/18 00:46:51;;;;;;;1.10;1.10;;;9.50;77.90;;;;;;5069134;28;20222;-76
2022/02/18 00:49:21;;;;;;;1.30;1.30;;;9.60;77.70;;;;;;5068554;28;20270;-76
2022/02/18 00:51:47;;;;;;;1.20;1.20;;;9.70;76.70;;;;;;5066651;28;20236;-75
2022/02/18 00:54:13;;;;;;;1.23;1.13;;;9.70;76.20;;;;;;5075497;28;20293;-76
2022/02/18 00:56:40;;;;;;;0.70;0.70;;;9.80;75.80;;;;;;5072983;28;20216;-76
2022/02/18 00:59:12;;;;;;;1.00;1.00;;;9.80;75.40;;;;;;5073379;28;20209;-76
2022/02/18 01:01:38;;;;;;;1.60;1.10;;;9.90;74.90;;;;;;5073953;28;20602;-76
2022/02/18 01:04:04;;;;;;;1.38;0.93;;;10.00;74.40;;;;;;5067442;28;20194;-76
2022/02/18 01:06:34;;;;;;;1.00;0.95;;;10.10;73.70;;;;;;5065800;28;20758;-76
2022/02/18 01:08:59;;;;;;;1.30;1.13;;;10.10;73.70;;;;;;5066355;28;20191;-76
2022/02/18 01:11:25;;;;;;;1.73;1.40;;;10.20;73.50;;;;;;5069257;28;20728;-76
2022/02/18 01:13:51;;;;;;;1.00;1.00;;;10.20;73.30;;;;;;5069468;28;20183;-76
2022/02/18 01:16:17;;;;;;;1.20;1.20;;;10.20;73.00;;;;;;5065281;28;20677;-76
2022/02/18 01:18:46;;;;;;;1.15;1.05;;;10.20;72.90;;;;;;5074533;28;20205;-76
2022/02/18 01:21:12;;;;;;;1.60;1.40;;;10.30;72.80;;;;;;5064791;28;20217;-76
2022/02/18 01:23:38;;;;;;;1.13;1.05;;;10.30;72.80;;;;;;5071672;28;20626;-76
2022/02/18 01:26:05;;;;;;;2.43;1.50;;;10.30;72.60;;;;;;5067463;28;20205;-76
2022/02/18 01:28:31;;;;;;;1.17;1.17;;;10.30;72.70;;;;;;5067270;28;20572;-76
2022/02/18 01:30:57;;;;;;;1.38;1.33;;;10.30;72.60;;;;;;5062460;28;20187;-76
2022/02/18 01:33:23;;;;;;;1.65;1.50;;;10.40;72.60;;;;;;5069437;28;20184;-76
2022/02/18 01:35:50;;;;;;;1.90;1.80;;;10.30;72.90;;;;;;5068985;28;20187;-77
2022/02/18 01:38:17;;;;;;;1.92;1.83;;;10.20;73.20;;;;;;5070921;28;20247;-77
2022/02/18 01:40:43;;;;;;;2.00;1.90;;;10.20;73.30;;;;;;5063743;28;20622;-76
2022/02/18 01:43:09;;;;;;;1.88;1.77;;;10.20;73.40;;;;;;5075342;28;20744;-76
2022/02/18 01:45:35;;;;;;;1.70;1.60;;;10.00;73.40;;;;;;5070355;28;20190;-77
2022/02/18 01:48:01;;;;;;;1.90;1.80;;;;;;;;;;5071366;28;21033;-76
2022/02/18 01:50:27;;;;;;;1.73;1.63;;;9.90;73.80;;;;;;5065700;28;20175;-76
2022/02/18 01:52:55;;;;;;;3.88;2.40;;;9.80;73.80;;;;;;5070092;28;20685;-77
2022/02/18 01:55:25;;;;;;;4.00;2.92;;;9.70;74.00;;;;;;5071168;28;20213;-77
2022/02/18 01:57:57;;;;;;;3.83;2.90;;;9.70;74.10;;;;;;5065329;28;20179;-77
2022/02/18 02:00:31;;;;;;;4.95;3.20;;;9.60;74.40;;;;;;5069424;28;20545;-77
2022/02/18 02:02:58;;;;;;;2.17;2.08;;;9.50;74.40;;;;;;5067416;28;20691;-76
2022/02/18 02:05:24;;;;;;;1.90;1.80;;;9.50;74.60;;;;;;5068133;28;20948;-76
2022/02/18 02:07:51;;;;;;;1.60;1.50;;;9.40;74.90;;;;;;5071810;28;20435;-76
2022/02/18 02:10:17;;;;;;;3.20;1.53;;;9.40;75.10;;;;;;5069361;28;20255;-76
2022/02/18 02:12:52;;;;;;;3.23;1.23;;;9.30;75.10;;;;;;5069498;28;20182;-76
2022/02/18 02:15:25;;;;;;;2.30;1.27;;;9.20;75.30;;;;;;5067713;28;20186;-76
2022/02/18 02:17:51;;;;;;;1.70;1.40;;;9.20;75.20;;;;;;5069841;28;20880;-76
2022/02/18 02:20:18;;;;;;;1.20;1.10;;;9.20;75.30;;;;;;5065182;28;20190;-76
2022/02/18 02:22:45;;;;;;;3.90;1.00;;;9.20;75.10;;;;;;5070229;28;20176;-76
2022/02/18 02:25:11;;;;;;;1.30;1.20;;;;;;;;;;5066610;28;20187;-76
2022/02/18 02:27:38;;;;;;;0.80;0.80;;;9.10;75.10;;;;;;5067774;28;20667;-76
2022/02/18 02:30:15;;;;;;;0.93;0.93;;;9.10;75.10;;;;;;5079228;28;20190;-77
2022/02/18 02:32:41;;;;;;;0.93;0.93;;;9.00;75.10;;;;;;5070151;28;20210;-77
2022/02/18 02:35:07;;;;;;;1.47;0.97;;;9.10;75.10;;;;;;5069885;28;20566;-76
2022/02/18 02:37:33;;;;;;;0.60;0.60;;;9.00;75.20;;;;;;5073827;28;20302;-77
2022/02/18 02:40:01;;;;;;;1.17;1.10;;;9.00;75.20;;;;;;5071870;28;20966;-76
2022/02/18 02:42:27;;;;;;;2.00;1.43;;;9.00;75.30;;;;;;5072457;28;20298;-77
2022/02/18 02:44:52;;;;;;;1.53;1.37;;;9.00;75.20;;;;;;5078510;28;20265;-77
2022/02/18 02:47:18;;;;;;;2.10;1.00;;;9.00;75.30;;;;;;5076419;28;20212;-77
2022/02/18 02:49:43;;;;;;;1.13;1.10;;;9.10;75.20;;;;;;5072413;28;20217;-75
2022/02/18 02:52:09;;;;;;;4.73;1.73;;;9.00;75.60;;;;;;5070329;28;20190;-76
2022/02/18 02:54:36;;;;;;;1.47;1.37;;;9.00;76.00;;;;;;5070306;28;20197;-76
2022/02/18 02:57:02;;;;;;;1.13;1.13;;;9.00;76.20;;;;;;5072503;28;20695;-76
2022/02/18 02:59:29;;;;;;;1.10;1.10;;;;;;;;;;5075692;28;20179;-76
2022/02/18 03:01:54;;;;;;;2.70;1.03;;;8.90;76.80;;;;;;5073435;28;20182;-77
2022/02/18 03:04:20;;;;;;;1.03;0.97;;;8.90;77.50;;;;;;5072293;28;20220;-77
2022/02/18 03:06:46;;;;;;;1.20;1.20;;;8.80;78.70;;;;;;5075391;28;20213;-76
2022/02/18 03:09:12;;;;;;;2.93;1.13;;;8.80;79.30;;;;;;5070353;28;20680;-77
2022/02/18 03:11:38;;;;;;;0.97;0.97;;;8.80;80.30;;;;;;5072629;28;20548;-76
2022/02/18 03:14:04;;;;;;;1.10;1.07;;;8.80;80.30;;;;;;5070836;28;20273;-77
2022/02/18 03:16:31;;;;;;;0.80;0.80;;;8.70;81.30;;;;;;5068882;28;20190;-76
2022/02/18 03:18:57;;;;;;;0.67;0.67;;;;;;;;;;5072121;28;20720;-77
2022/02/18 03:21:23;;;;;;;1.60;1.50;;;;;;;;;;5068429;28;20187;-78
2022/02/18 03:23:49;;;;;;;1.20;1.20;;;;;;;;;;5069040;28;20239;-78
2022/02/18 03:26:16;;;;;;;1.37;1.20;;;8.40;83.80;;;;;;5070636;28;20218;-78
2022/02/18 03:28:43;;;;;;;3.23;0.80;;;8.30;84.90;;;;;;5074166;28;20191;-78
2022/02/18 03:31:09;;;;;;;2.90;1.40;;;8.20;85.60;;;;;;5076978;28;20190;-77
2022/02/18 03:33:42;;;;;;;1.10;0.97;;;8.20;85.60;;;;;;5072015;28;20194;-77
2022/02/18 03:36:09;;;;;;;2.03;1.87;;;8.10;86.90;;;;;;5071482;28;20189;-77
2022/02/18 03:38:35;;;;;;;1.33;1.23;;;7.90;87.60;;;;;;5070417;28;20194;-77
2022/02/18 03:41:01;;;;;;;1.43;1.43;;;7.90;87.70;;;;;;5064146;28;20178;-77
2022/02/18 03:43:27;;;;;;;1.13;1.13;;;7.80;88.60;;;;;;5072703;28;20175;-76
2022/02/18 03:45:53;;;;;;;2.30;1.47;;;7.80;88.60;;;;;;5072235;28;20677;-77
2022/02/18 03:48:19;;;;;;;1.17;1.17;;;7.60;89.80;;;;;;5067782;28;20179;-77
2022/02/18 03:50:45;;;;;;;0.80;0.80;;;;;;;;;;5070638;28;20183;-77
2022/02/18 03:53:12;;;;;;;2.20;0.97;;;;;;;;;;5072741;28;20194;-77
2022/02/18 03:55:38;;;;;;;0.77;0.77;;;7.40;90.30;;;;;;5074621;28;20265;-77
2022/02/18 03:58:04;;;;;;;0.70;0.70;;;7.20;90.90;;;;;;5070481;28;20194;-77
2022/02/18 04:00:30;;;;;;;1.17;0.67;;;7.20;90.90;;;;;;5073177;28;20183;-77
2022/02/18 04:02:56;;;;;;;0.77;0.77;;;7.10;91.20;;;;;;5070785;28;20257;-77
2022/02/18 04:05:21;;;;;;;2.40;1.00;;;7.00;91.50;;;;;;5069737;28;20240;-76
2022/02/18 04:07:48;;;;;;;0.50;0.50;;;7.00;92.00;;;;;;5072143;28;20266;-77
2022/02/18 04:10:14;;;;;;;1.30;0.73;;;;;;;;;;5068362;28;20239;-77
2022/02/18 04:12:39;;;;;;;1.37;0.80;;;6.80;92.70;;;;;;5061786;28;20190;-77
2022/02/18 04:15:06;;;;;;;0.73;0.73;;;6.80;92.70;;;;;;5073166;28;20183;-77
2022/02/18 04:17:32;;;;;;;0.60;0.60;;;6.70;92.30;;;;;;5074724;28;20262;-76
2022/02/18 04:19:58;;;;;;;0.20;0.20;;;6.60;90.20;;;;;;5068488;28;20179;-76
2022/02/18 04:22:24;;;;;;;0.27;0.27;;;6.60;90.20;;;;;;5069109;28;20186;-76
2022/02/18 04:24:50;;;;;;;0.23;0.23;;;6.50;89.40;;;;;;5073384;28;20271;-74
2022/02/18 04:27:16;;;;;;;5.20;0.30;;;6.30;89.00;;;;;;5066090;28;20612;-76
2022/02/18 04:29:43;;;;;;;0.30;0.30;;;6.30;89.00;;;;;;5068069;28;20183;-77
2022/02/18 04:32:09;;;;;;;0.30;0.30;;;6.20;88.60;;;;;;5068248;28;20272;-77
2022/02/18 04:34:35;;;;;;;0.20;0.20;;;6.10;88.10;;;;;;5066062;28;20212;-78
2022/02/18 04:37:01;;;;;;;0.30;0.30;;;;;;;;;;5066818;28;20222;-78
2022/02/18 04:39:28;;;;;;;0.20;0.20;;;6.00;87.60;;;;;;5066572;28;20194;-78
2022/02/18 04:41:54;;;;;;;0.20;0.20;;;;;;;;;;5073760;28;20609;-78
2022/02/18 04:44:20;;;;;;;0.20;0.20;;;5.90;86.40;;;;;;5068609;28;20186;-77
2022/02/18 04:46:46;;;;;;;0.10;0.10;;;5.90;86.40;;;;;;5057018;28;20240;-77
2022/02/18 04:49:12;;;;;;;0.20;0.20;;;5.90;86.40;;;;;;5068366;28;20198;-77
2022/02/18 04:51:38;;;;;;;0.30;0.30;;;5.90;86.10;;;;;;5067954;28;20185;-77
2022/02/18 04:54:07;;;;;;;0.20;0.20;;;5.90;85.40;;;;;;5067833;28;20183;-77
2022/02/18 04:56:33;;;;;;;2.00;0.40;;;5.90;85.00;;;;;;5064206;28;20275;-77
2022/02/18 04:58:59;;;;;;;0.10;0.10;;;5.90;84.70;;;;;;5069658;28;20183;-77
2022/02/18 05:01:26;;;;;;;2.13;0.30;;;5.90;84.30;;;;;;5059232;28;20211;-77
2022/02/18 05:03:53;;;;;;;0.20;0.20;;;5.90;84.30;;;;;;5076698;28;20183;-77
2022/02/18 05:06:19;;;;;;;0.47;0.20;;;5.90;83.30;;;;;;5068336;28;20230;-76
2022/02/18 05:08:45;;;;;;;0.73;0.20;;;5.90;83.20;;;;;;5077797;28;20210;-77
2022/02/18 05:11:11;;;;;;;0.20;0.20;;;5.90;83.10;;;;;;5068798;28;20215;-77
2022/02/18 05:13:38;;;;;;;0.20;0.20;;;5.90;82.50;;;;;;5062447;28;20183;-77
2022/02/18 05:16:04;;;;;;;0.13;0.13;;;5.90;81.60;;;;;;5062948;28;20183;-76
2022/02/18 05:18:30;;;;;;;0.20;0.20;;;5.90;81.40;;;;;;5062041;28;20179;-76
2022/02/18 05:20:56;;;;;;;1.00;0.10;;;5.90;81.50;;;;;;5060782;28;20194;-76
2022/02/18 05:23:22;;;;;;;0.20;0.20;;;6.00;80.60;;;;;;5062467;28;20187;-76
2022/02/18 05:25:48;;;;;;;0.13;0.13;;;6.00;80.60;;;;;;5063344;28;20260;-75
2022/02/18 05:28:15;;;;;;;0.13;0.13;;;6.00;79.60;;;;;;5064579;28;20241;-77
2022/02/18 05:30:42;;;;;;;0.17;0.17;;;6.00;79.50;;;;;;5063165;28;20269;-76
2022/02/18 05:33:07;;;;;;;0.40;0.37;;;6.00;79.60;;;;;;5065773;28;20578;-77
2022/02/18 05:35:33;;;;;;;0.30;0.20;;;6.00;79.00;;;;;;5061021;28;20178;-77
2022/02/18 05:37:59;;;;;;;0.20;0.20;;;6.00;79.00;;;;;;5064467;28;20187;-77
2022/02/18 05:40:25;;;;;;;0.20;0.20;;;;;;;;;;5067077;28;20202;-77
2022/02/18 05:42:51;;;;;;;0.23;0.23;;;;;;;;;;5065022;28;20190;-77
2022/02/18 05:45:17;;;;;;;0.20;0.20;;;6.00;77.80;;;;;;5066480;28;20265;-77
2022/02/18 05:47:43;;;;;;;0.10;0.10;;;6.00;77.20;;;;;;5064278;28;20209;-77
2022/02/18 05:50:13;;;;;;;0.30;0.30;;;6.00;76.80;;;;;;5069154;28;20575;-78
2022/02/18 05:52:41;;;;;;;0.30;0.30;;;6.00;77.10;;;;;;5063672;28;20178;-77
2022/02/18 05:55:08;;;;;;;0.00;0.00;;;6.10;76.60;;;;;;5065017;28;20206;-76
2022/02/18 05:57:34;;;;;;;0.00;0.00;;;6.10;75.50;;;;;;5063539;28;21087;-76
2022/02/18 06:00:00;;;;;;;0.10;0.10;;;6.10;75.50;;;;;;5067308;28;20187;-77
2022/02/18 06:02:26;;;;;;;0.17;0.17;;;;;;;;;;5067768;28;20269;-77
2022/02/18 06:04:52;;;;;;;0.73;0.20;;;6.10;75.80;;;;;;5068408;28;20191;-77
2022/02/18 06:07:18;;;;;;;0.57;0.30;;;6.10;75.40;;;;;;5069185;28;20210;-75
2022/02/18 06:09:44;;;;;;;0.77;0.20;;;6.10;74.90;;;;;;5074333;28;20239;-77
2022/02/18 06:12:10;;;;;;;0.27;0.27;;;6.10;74.70;;;;;;5067688;28;20266;-78
2022/02/18 06:14:37;;;;;;;0.43;0.30;;;6.10;74.70;;;;;;5069901;28;20187;-77
2022/02/18 06:17:05;;;;;;;0.20;0.20;;;6.10;74.30;;;;;;5069504;28;20188;-76
2022/02/18 06:19:32;;;;;;;0.13;0.13;;;6.10;73.90;;;;;;5073011;28;20645;-76
2022/02/18 06:21:58;;;;;;;1.13;0.17;;;6.20;74.00;;;;;;5065985;28;20279;-76
2022/02/18 06:24:25;;;;;;;1.57;0.20;;;6.20;73.50;;;;;;5066885;28;20205;-76
2022/02/18 06:26:50;;;;;;;0.20;0.20;;;6.20;73.50;;;;;;5066802;28;20335;-77
2022/02/18 06:29:16;;;;;;;0.30;0.30;;;6.30;73.40;;;;;;5068054;28;20265;-77
2022/02/18 06:31:42;;;;;;;0.13;0.13;;;6.30;73.20;;;;;;5071559;28;20183;-77
2022/02/18 06:34:08;;;;;;;0.20;0.20;;;6.30;73.00;;;;;;5070720;28;20179;-78
2022/02/18 06:36:34;;;;;;;1.50;0.10;;;6.30;72.30;;;;;;5070368;28;21820;-76
2022/02/18 06:39:00;;;;;;;0.30;0.30;;;6.30;72.30;;;;;;5073932;28;20186;-77
2022/02/18 06:41:26;;;;;;;0.47;0.30;;;;;;;;;;5067471;28;20269;-77
2022/02/18 06:43:52;;;;;;;0.20;0.20;;;;;;;;;;5074539;28;20275;-77
2022/02/18 06:46:18;;;;;;;0.17;0.10;;;6.30;71.40;;;;;;5068046;28;20219;-77
2022/02/18 06:48:44;;;;;;;0.20;0.20;;;6.30;71.50;;;;;;5065421;28;20225;-76
2022/02/18 06:51:10;;;;;;;0.23;0.10;;;6.30;71.20;;;;;;5070848;28;20191;-74
2022/02/18 06:53:37;;;;;;;0.10;0.10;;;6.30;70.80;;;;;;5070787;28;20179;-74
2022/02/18 06:56:04;;;;;;;0.27;0.27;;;6.30;71.00;;;;;;5064870;28;20179;-74
2022/02/18 06:58:29;;;;;;;1.30;0.30;;;6.30;71.00;;;;;;5062196;28;20603;-74
2022/02/18 07:00:55;;;;;;;0.90;0.30;;;6.30;70.90;;;;;;5061196;28;20179;-75
2022/02/18 07:03:21;;;;;;;0.27;0.23;;;6.40;71.20;;;;;;5070741;28;20182;-75
2022/02/18 07:05:48;;;;;;;0.83;0.20;;;6.40;70.80;;;;;;5062931;28;20217;-75
2022/02/18 07:08:14;;;;;;;0.40;0.40;;;6.40;71.00;;;;;;5061197;28;20574;-76
2022/02/18 07:10:41;;;;;;;0.13;0.13;;;6.50;71.50;;;;;;5064000;28;20257;-73
2022/02/18 07:13:07;;;;;;;0.53;0.30;;;6.50;71.70;;;;;;5060997;28;20206;-74
2022/02/18 07:15:34;;;;;;;0.20;0.20;;;6.60;72.20;;;;;;5064463;28;20186;-77
2022/02/18 07:18:01;;;;;;;1.27;0.10;;;6.70;72.20;;;;;;5058644;28;20744;-74
2022/02/18 07:20:28;;;;;;;0.20;0.20;;;6.80;72.70;;;;;;4997376;28;20189;-76
2022/02/18 07:22:54;;;;;;;0.20;0.20;;;7.00;72.80;;;;;;4996022;28;20177;-77
2022/02/18 07:25:20;;;;;;;0.33;0.33;;;7.40;72.70;;;;;;4995807;28;20188;-76
2022/02/18 07:27:46;;;;;;;1.70;0.30;;;7.70;71.70;;;;;;4996422;28;20220;-77
2022/02/18 07:30:13;;;;;;;0.30;0.30;;;8.00;71.00;;;;;;5000065;28;20186;-78
2022/02/18 07:32:39;;;;;;;0.70;0.20;;;8.40;70.30;;;;;;4997110;28;20655;-78
2022/02/18 07:35:05;;;;;;;0.40;0.40;;;8.70;68.80;;;;;;4996518;28;20244;-78
2022/02/18 07:37:31;;;;;;;0.60;0.60;;;9.00;68.80;;;;;;4997073;28;20185;-78
2022/02/18 07:39:56;;;;;;;0.30;0.30;;;9.40;67.80;;;;;;4997436;28;20195;-79
2022/02/18 07:42:22;;;;;;;0.30;0.30;;;9.50;66.30;;;;;;4995881;28;20192;-77
2022/02/18 07:44:48;;;;;;;0.30;0.30;;;9.70;65.90;;;;;;4994834;28;20212;-79
2022/02/18 07:47:15;;;;;;;1.17;0.30;;;10.00;65.50;;;;;;4997963;28;20997;-76
2022/02/18 07:49:42;;;;;;;0.40;0.40;;;;;;;;;;4993867;28;20734;-77
2022/02/18 07:52:08;;;;;;;1.17;0.60;;;10.70;64.10;;;;;;5013009;28;20189;-76
2022/02/18 07:54:34;;;;;;;1.27;0.40;;;11.10;63.90;;;;;;4996479;28;20185;-77
2022/02/18 07:57:00;;;;;;;0.20;0.20;;;11.50;62.40;;;;;;4997397;28;20210;-77
2022/02/18 07:59:26;;;;;;;0.20;0.20;;;11.90;61.80;;;;;;4994764;28;20182;-77
2022/02/18 08:01:52;;;;;;;0.47;0.38;;;12.00;60.80;;;;;;4996918;28;20185;-78
2022/02/18 08:04:17;;;;;;;0.47;0.43;;;12.10;60.90;;;;;;4997168;28;20213;-77
2022/02/18 08:06:43;;;;;;;0.40;0.40;;;12.30;60.00;;;;;;4995387;28;20224;-77
2022/02/18 08:09:09;;;;;;;0.30;0.30;;;12.50;60.20;;;;;;4998737;28;20185;-77
2022/02/18 08:11:35;;;;;;;0.38;0.38;;;12.70;59.90;;;;;;4994223;28;20836;-79
2022/02/18 08:14:01;;;;;;;0.50;0.50;;;13.20;58.80;;;;;;5000566;28;20266;-79
2022/02/18 08:16:31;;;;;;;0.73;0.40;;;13.20;59.10;;;;;;4995240;28;20706;-78
2022/02/18 08:18:57;;;;;;;1.17;0.65;;;13.20;58.40;;;;;;5009112;28;20200;-78
2022/02/18 08:21:23;;;;;;;2.38;0.30;;;13.30;57.90;;;;;;4994409;28;20201;-78
2022/02/18 08:23:52;;;;;;;1.00;0.50;;;13.20;57.90;;;;;;4994677;28;20181;-78
2022/02/18 08:26:19;;;;;;;2.33;0.30;;;13.00;57.80;;;;;;4990747;28;20669;-77
2022/02/18 08:28:45;;;;;;;0.40;0.40;;;12.70;57.70;;;;;;4997348;28;20185;-77
2022/02/18 08:31:11;;;;;;;0.30;0.30;;;12.60;58.20;;;;;;4994914;28;20267;-78
2022/02/18 08:33:37;;;;;;;0.20;0.20;;;12.50;58.40;;;;;;4994643;28;20697;-78
2022/02/18 08:36:05;;;;;;;0.30;0.30;;;12.60;58.80;;;;;;4997542;28;20273;-78
2022/02/18 08:38:31;;;;;;;0.50;0.50;;;12.90;58.90;;;;;;4994843;28;20662;-78
2022/02/18 08:40:57;;;;;;;1.95;0.35;;;13.50;58.00;;;;;;4998139;28;20185;-78
2022/02/18 08:43:26;;;;;;;0.60;0.60;;;14.00;56.70;;;;;;4996477;28;20225;-79
2022/02/18 08:45:51;;;;;;;0.20;0.20;;;14.20;55.60;;;;;;4993337;28;20231;-79
2022/02/18 08:48:22;;;;;;;0.20;0.20;;;14.30;54.90;;;;;;4998891;28;20189;-78
2022/02/18 08:51:08;;;;;;;0.20;0.20;;;14.00;54.70;;;;;;5001253;28;21169;-78
2022/02/18 08:53:33;;;;;;;0.40;0.35;;;13.80;54.90;;;;;;4999407;28;20197;-78
2022/02/18 08:55:59;;;;;;;1.08;0.40;;;13.90;55.40;;;;;;5002340;28;20204;-77
2022/02/18 08:58:26;;;;;;;2.45;0.40;;;14.10;55.10;;;;;;5000087;28;20203;-77
2022/02/18 09:00:52;;;;;;;0.30;0.30;;;14.20;55.70;;;;;;4997474;28;20335;-78
2022/02/18 09:03:18;;;;;;;2.17;0.30;;;14.70;55.80;;;;;;4998377;28;20626;-76
2022/02/18 09:05:44;;;;;;;1.55;0.50;;;15.20;54.00;;;;;;4997551;28;20288;-76
2022/02/18 09:08:10;;;;;;;0.40;0.40;;;15.50;53.40;;;;;;4999429;28;20278;-76
2022/02/18 09:10:36;;;;;;;1.60;0.50;;;15.50;52.20;;;;;;5000470;28;20276;-76
2022/02/18 09:13:01;;;;;;;0.77;0.52;;;15.20;53.00;;;;;;4998209;28;20934;-76
2022/02/18 09:15:27;;;;;;;0.40;0.40;;;15.20;53.20;;;;;;5001517;28;20196;-77
2022/02/18 09:17:53;;;;;;;1.73;0.43;;;15.20;52.70;;;;;;4999830;28;20220;-76
2022/02/18 09:20:19;;;;;;;0.60;0.60;;;15.20;52.30;;;;;;4999601;28;20212;-78
2022/02/18 09:22:44;;;;;;;0.98;0.40;;;15.40;52.70;;;;;;4997490;28;20193;-76
2022/02/18 09:25:10;;;;;;;0.40;0.40;;;15.80;52.20;;;;;;4997078;28;20189;-76
2022/02/18 09:27:36;;;;;;;1.50;0.40;;;16.20;51.10;;;;;;4998284;28;20221;-77
2022/02/18 09:30:03;;;;;;;2.78;0.57;;;16.70;50.50;;;;;;4992808;28;20201;-75
2022/02/18 09:32:29;;;;;;;0.50;0.50;;;17.10;49.40;;;;;;4994546;28;20184;-76
2022/02/18 09:34:58;;;;;;;0.52;0.50;;;16.90;48.90;;;;;;4997321;28;20196;-77
2022/02/18 09:37:23;;;;;;;0.40;0.40;;;16.80;49.30;;;;;;4998637;28;20185;-77
2022/02/18 09:39:49;;;;;;;0.90;0.60;;;16.80;48.90;;;;;;4994910;28;20220;-76
2022/02/18 09:42:19;;;;;;;0.82;0.52;;;16.30;49.20;;;;;;4993376;28;20196;-76
2022/02/18 09:44:45;;;;;;;5.03;1.08;;;16.30;49.30;;;;;;4996400;28;20177;-77
2022/02/18 09:47:14;;;;;;;1.60;0.88;;;16.00;49.20;;;;;;4995130;28;20220;-78
2022/02/18 09:49:43;;;;;;;0.30;0.30;;;15.60;49.40;;;;;;4992802;28;20201;-77
2022/02/18 09:52:11;;;;;;;2.35;0.40;;;15.60;49.60;;;;;;4990112;28;20689;-75
2022/02/18 09:54:37;;;;;;;0.40;0.40;;;15.70;50.20;;;;;;4993022;28;20760;-76
2022/02/18 09:57:03;;;;;;;0.30;0.22;;;15.90;49.40;;;;;;4994189;28;20255;-77
2022/02/18 09:59:37;;;;;;;0.52;0.30;;;16.00;48.30;;;;;;4992647;28;20185;-77
2022/02/18 10:02:04;;;;;;;0.40;0.40;;;16.10;48.30;;;;;;4995461;28;20182;-77
2022/02/18 10:04:30;;;;;;;1.17;0.63;;;16.00;48.90;;;;;;4993149;28;20265;-77
2022/02/18 10:06:56;;;;;;;0.40;0.40;;;16.20;48.70;;;;;;4993911;28;20220;-76
2022/02/18 10:09:45;;;;;;;0.47;0.43;;;16.20;49.00;;;;;;4994594;28;20186;-76
2022/02/18 10:12:12;;;;;;;0.43;0.43;;;16.10;48.30;;;;;;4991444;28;20185;-74
2022/02/18 10:15:03;;;;;;;1.08;0.50;;;15.90;48.40;;;;;;4992526;28;20181;-77
2022/02/18 10:17:48;;;;;;;2.28;0.30;;;15.60;48.50;;;;;;4990100;28;20231;-76
2022/02/18 10:20:28;;;;;;;0.75;0.50;;;15.70;48.90;;;;;;4992398;28;20182;-77
2022/02/18 10:23:03;;;;;;;0.73;0.50;;;15.80;48.90;;;;;;4993616;28;20185;-76
2022/02/18 10:25:34;;;;;;;0.30;0.30;;;16.00;48.90;;;;;;4997768;28;20177;-76
2022/02/18 10:28:00;;;;;;;0.38;0.38;;;16.20;48.40;;;;;;4993708;28;20209;-76
2022/02/18 10:30:30;;;;;;;0.30;0.30;;;16.30;47.90;;;;;;4994278;28;20220;-76
2022/02/18 10:33:17;;;;;;;0.43;0.40;;;16.10;48.00;;;;;;4992274;28;20182;-77
2022/02/18 10:35:45;;;;;;;0.40;0.40;;;15.80;47.60;;;;;;4994868;28;20812;-77
2022/02/18 10:38:12;;;;;;;0.22;0.22;;;15.80;47.20;;;;;;5000496;28;20315;-78
2022/02/18 10:40:49;;;;;;;1.08;0.35;;;15.80;46.90;;;;;;4995770;28;20208;-78
2022/02/18 10:43:18;;;;;;;0.52;0.35;;;15.80;46.50;;;;;;4991816;28;20247;-77
2022/02/18 10:45:52;;;;;;;0.90;0.20;;;16.20;46.60;;;;;;4997313;28;20186;-78
2022/02/18 10:48:23;;;;;;;2.78;0.40;;;16.70;45.90;;;;;;4996907;28;20223;-78
2022/02/18 10:51:04;;;;;;;2.13;0.50;;;16.90;45.10;;;;;;4990838;28;20281;-76
2022/02/18 10:53:35;;;;;;;0.95;0.45;;;17.00;44.80;;;;;;4996034;28;20181;-79
2022/02/18 10:56:05;;;;;;;0.30;0.20;;;17.00;45.20;;;;;;4994763;28;20248;-77
2022/02/18 10:58:39;;;;;;;1.63;0.30;;;16.90;45.70;;;;;;4998363;28;20980;-78
2022/02/18 11:01:06;;;;;;;0.40;0.40;;;17.30;45.50;;;;;;4995862;28;20189;-77
2022/02/18 11:03:34;;;;;;;0.20;0.20;;;17.30;45.70;;;;;;4999804;28;20277;-77
2022/02/18 11:06:10;;;;;;;2.10;0.43;;;17.50;45.50;;;;;;5000116;28;20192;-77
2022/02/18 11:08:36;;;;;;;0.50;0.50;;;17.80;45.50;;;;;;5000464;28;20235;-78
2022/02/18 11:11:10;;;;;;;0.30;0.30;;;18.00;44.60;;;;;;4998183;28;20177;-78
2022/02/18 11:13:40;;;;;;;0.77;0.50;;;18.00;44.40;;;;;;4997902;28;20234;-77
2022/02/18 11:16:10;;;;;;;0.50;0.30;;;17.90;44.60;;;;;;5000652;28;20235;-77
2022/02/18 11:18:42;;;;;;;0.50;0.20;;;17.70;44.10;;;;;;5000210;28;20524;-78
2022/02/18 11:21:09;;;;;;;0.20;0.20;;;17.60;44.20;;;;;;4993535;28;20244;-78
2022/02/18 11:23:35;;;;;;;0.30;0.30;;;17.20;44.20;;;;;;4999058;28;20576;-78
2022/02/18 11:26:01;;;;;;;1.38;0.30;;;16.60;44.80;;;;;;4997995;28;20192;-77
2022/02/18 11:28:28;;;;;;;0.28;0.28;;;16.40;44.40;;;;;;4996986;28;20236;-78
2022/02/18 11:30:59;;;;;;;0.55;0.25;;;16.20;44.30;;;;;;4995026;28;20188;-78
2022/02/18 11:34:00;;;;;;;0.63;0.47;;;16.20;45.20;;;;;;4999426;28;20180;-77
2022/02/18 11:36:44;;;;;;;0.30;0.30;;;16.20;44.80;;;;;;4997798;28;20232;-78
2022/02/18 11:39:39;;;;;;;0.40;0.40;;;16.00;45.00;;;;;;4994313;28;20250;-78
2022/02/18 11:42:36;;;;;;;0.65;0.40;;;16.10;44.80;;;;;;4962828;28;20198;-77
2022/02/18 11:45:13;;;;;;;0.20;0.20;;;16.40;44.50;;;;;;4899521;29;20204;-77
2022/02/18 11:47:39;;;;;;;0.85;0.70;;;16.50;44.60;;;;;;4900895;29;20239;-77
2022/02/18 11:50:16;;;;;;;0.30;0.30;;;16.70;44.60;;;;;;4903511;29;20204;-77
2022/02/18 11:52:48;;;;;;;0.55;0.32;;;17.00;44.20;;;;;;4900860;29;20774;-78
2022/02/18 11:55:37;;;;;;;0.30;0.30;;;17.30;43.50;;;;;;4900491;29;20196;-79
2022/02/18 11:58:13;;;;;;;1.65;0.30;;;17.20;42.80;;;;;;4900784;29;20252;-76
2022/02/18 12:00:46;;;;;;;0.45;0.35;;;17.10;43.10;;;;;;4897728;29;20199;-77
2022/02/18 12:03:25;;;;;;;2.85;0.40;;;17.20;43.50;;;;;;4899213;29;20308;-77
2022/02/18 12:06:16;;;;;;;1.70;0.40;;;17.70;42.90;;;;;;4895496;29;20200;-77
2022/02/18 12:08:52;;;;;;;2.30;0.28;;;18.00;42.20;;;;;;4898118;29;20610;-74
2022/02/18 12:11:19;;;;;;;0.22;0.22;;;17.90;41.90;;;;;;4897959;29;20192;-73
2022/02/18 12:14:08;;;;;;;0.40;0.30;;;17.90;41.90;;;;;;4900737;29;20193;-74
2022/02/18 12:16:34;;;;;;;0.30;0.30;;;17.30;42.60;;;;;;4898171;29;20221;-75
2022/02/18 12:19:02;;;;;;;0.20;0.20;;;17.10;43.00;;;;;;4907707;29;20196;-74
2022/02/18 12:21:28;;;;;;;0.30;0.30;;;17.00;42.30;;;;;;4939421;28;20194;-75
2022/02/18 12:23:54;;;;;;;0.17;0.17;;;16.50;42.70;;;;;;4999476;28;20184;-74
2022/02/18 12:26:22;;;;;;;2.00;0.30;;;16.30;43.40;;;;;;4993924;28;20714;-74
2022/02/18 12:28:50;;;;;;;1.77;0.38;;;16.60;43.10;;;;;;4992907;28;20182;-73
2022/02/18 12:31:16;;;;;;;0.90;0.20;;;16.90;43.20;;;;;;4997632;28;20323;-74
2022/02/18 12:33:44;;;;;;;0.17;0.17;;;16.90;42.20;;;;;;4993944;28;20190;-74
2022/02/18 12:36:12;;;;;;;0.28;0.20;;;16.80;42.60;;;;;;4994092;28;20190;-74
2022/02/18 12:38:45;;;;;;;0.20;0.20;;;16.90;43.10;;;;;;4994365;28;20264;-73
2022/02/18 12:41:16;;;;;;;0.32;0.30;;;17.00;42.90;;;;;;4995075;28;20881;-74
2022/02/18 12:43:42;;;;;;;0.50;0.45;;;16.80;42.00;;;;;;4996049;28;20320;-74
2022/02/18 12:46:12;;;;;;;0.85;0.30;;;16.60;43.00;;;;;;4992613;28;20193;-74
2022/02/18 12:48:43;;;;;;;1.55;0.20;;;16.60;43.80;;;;;;4996257;28;20221;-74
2022/02/18 12:51:22;;;;;;;0.52;0.30;;;16.70;42.60;;;;;;4994476;28;20209;-74
2022/02/18 12:53:50;;;;;;;0.20;0.20;;;16.80;43.30;;;;;;4992725;28;20681;-74
2022/02/18 12:56:15;;;;;;;0.22;0.20;;;17.10;42.70;;;;;;4995656;28;20822;-74
2022/02/18 12:58:56;;;;;;;0.30;0.30;;;16.70;42.60;;;;;;4993590;28;20184;-73
2022/02/18 13:01:23;;;;;;;0.20;0.20;;;16.50;43.60;;;;;;4993981;28;20184;-74